»·PEaware :: JA1537 KSBP-KPMD

JA1537 :: KSBP-KPMD

FLIGHT INFORMATION

Flight Status: Arrived
Operator: Privately registered:
Japan
More flights under this callsign
Pilot: Craig F. (30638)
Aircraft: CESSNA 207 TURBO STATIONAIR
(C207)
More flights by this aircraft type
Origin: KSBP San Luis Co Regl
United States
Destination: KPMD Palmdale AF Plant 42
United States
More flights between these airports :: More routes between these airports
Route: REYES
File this flight plan on PilotEdge
Remarks:
Altitude:
(Current/Filed)
7,000ft
Speed:
(Current/Filed)
140kts
Departed: 28-Jul-20 08:36 PM
Arrived: 28-Jul-20 09:41 PM
Distance/Time
Traveled:
22nm/1:05
Distance/Time
To Go:
Arrived

Flight Plot

Page will automatically refresh every two minutes.


Map Options




Map Legend


Flown Route
Filed Route
Departure Airport
Arrival Airport
Navaid (VOR, NDB)
Fix

Horizontal Profiles

Position Reports

Time Latitude Longitude Heading Altitude Ground
Speed
28-Jul-20 20:17 35.238245 -120.639989 308 215ft 0kts
28-Jul-20 20:18 35.238245 -120.639989 308 215ft 0kts
28-Jul-20 20:19 35.238245 -120.639989 308 215ft 0kts
28-Jul-20 20:20 35.238245 -120.639989 308 215ft 0kts
28-Jul-20 20:21 35.238245 -120.639989 308 215ft 0kts
28-Jul-20 20:22 35.238245 -120.639989 308 215ft 0kts
28-Jul-20 20:23 35.238245 -120.639989 308 215ft 0kts
28-Jul-20 20:24 35.238245 -120.639989 308 215ft 0kts
28-Jul-20 20:25 35.238245 -120.639989 308 215ft 0kts
28-Jul-20 20:26 35.238245 -120.639989 308 215ft 0kts
28-Jul-20 20:27 35.238245 -120.639989 308 215ft 0kts
28-Jul-20 20:28 35.238245 -120.639989 308 215ft 0kts
28-Jul-20 20:29 35.238245 -120.639989 308 215ft 0kts
28-Jul-20 20:30 35.238245 -120.639989 308 215ft 0kts
28-Jul-20 20:31 35.237144 -120.638729 129 215ft 10kts
28-Jul-20 20:32 35.235130 -120.635240 126 215ft 13kts
28-Jul-20 20:33 35.233278 -120.632218 200 216ft 5kts
28-Jul-20 20:34 35.233145 -120.632344 216 215ft 0kts
28-Jul-20 20:35 35.235542 -120.637849 306 329ft 74kts
28-Jul-20 20:36 35.247790 -120.664189 291 1238ft 88kts
28-Jul-20 20:37 35.242514 -120.689537 186 1988ft 108kts
28-Jul-20 20:38 35.221388 -120.662156 127 2704ft 115kts
28-Jul-20 20:39 35.203266 -120.630192 126 3408ft 113kts
28-Jul-20 20:40 35.185835 -120.598828 126 4110ft 110kts
28-Jul-20 20:41 35.169057 -120.568303 126 4811ft 106kts
28-Jul-20 20:42 35.159409 -120.536418 72 5520ft 106kts
28-Jul-20 20:43 35.170011 -120.503383 67 6218ft 103kts
28-Jul-20 20:44 35.172049 -120.470674 108 6906ft 95kts
28-Jul-20 20:45 35.162061 -120.440950 116 7502ft 103kts
28-Jul-20 20:46 35.148755 -120.405711 115 8014ft 119kts
28-Jul-20 20:47 35.132839 -120.363513 115 7504ft 146kts
28-Jul-20 20:48 35.115834 -120.318490 116 7015ft 139kts
28-Jul-20 20:49 35.100442 -120.276590 115 7017ft 134kts
28-Jul-20 20:50 35.084846 -120.235286 115 7018ft 134kts
28-Jul-20 20:51 35.069157 -120.194020 116 7017ft 133kts
28-Jul-20 20:52 35.053487 -120.152863 116 7015ft 133kts
28-Jul-20 20:53 35.037833 -120.111801 116 7013ft 133kts
28-Jul-20 20:54 35.022307 -120.070814 115 7012ft 133kts
28-Jul-20 20:55 35.007070 -120.030241 115 7010ft 133kts
28-Jul-20 20:56 34.991373 -119.989124 116 7009ft 133kts
28-Jul-20 20:57 34.975590 -119.947929 116 7009ft 133kts
28-Jul-20 20:58 34.959799 -119.906767 115 7009ft 134kts
28-Jul-20 20:59 34.943974 -119.865566 115 7009ft 134kts
28-Jul-20 21:00 34.928067 -119.824202 115 7009ft 135kts
28-Jul-20 21:01 34.911909 -119.782204 115 7009ft 137kts
28-Jul-20 21:03 34.895612 -119.739910 116 7016ft 138kts
28-Jul-20 21:04 34.879274 -119.697579 116 7008ft 138kts
28-Jul-20 21:05 34.862940 -119.655323 116 6998ft 137kts
28-Jul-20 21:06 34.846752 -119.613503 116 6989ft 136kts
28-Jul-20 21:07 34.830543 -119.571691 116 6981ft 136kts
28-Jul-20 21:08 34.814554 -119.530498 116 6975ft 135kts
28-Jul-20 21:09 34.798492 -119.489170 116 6970ft 135kts
28-Jul-20 21:10 34.782247 -119.447424 116 6968ft 136kts
28-Jul-20 21:11 34.765949 -119.405595 116 7000ft 134kts
28-Jul-20 21:12 34.751061 -119.367547 115 7694ft 120kts
28-Jul-20 21:13 34.736780 -119.330938 116 8391ft 119kts
28-Jul-20 21:14 34.721200 -119.291061 115 8516ft 137kts
28-Jul-20 21:15 34.704682 -119.248854 115 8519ft 138kts
28-Jul-20 21:16 34.688060 -119.206443 116 8519ft 138kts
28-Jul-20 21:17 34.671521 -119.164301 116 8519ft 138kts
28-Jul-20 21:17 34.659399 -119.128378 94 8522ft 138kts
28-Jul-20 21:19 34.657996 -119.073690 91 8519ft 138kts
28-Jul-20 21:20 34.656994 -119.026853 91 8522ft 138kts
28-Jul-20 21:20 34.656039 -118.987910 92 8539ft 138kts
28-Jul-20 21:22 34.654669 -118.933460 92 8562ft 138kts
28-Jul-20 21:23 34.653475 -118.886725 92 8582ft 138kts
28-Jul-20 21:23 34.652469 -118.847891 92 8597ft 138kts
28-Jul-20 21:25 34.651040 -118.793516 92 8617ft 138kts
28-Jul-20 21:25 34.650001 -118.754443 92 8605ft 139kts
28-Jul-20 21:26 34.648737 -118.707585 93 8588ft 139kts
28-Jul-20 21:28 34.646895 -118.652983 93 8570ft 138kts
28-Jul-20 21:28 34.645794 -118.613991 93 8557ft 138kts
28-Jul-20 21:29 34.644485 -118.567443 94 8542ft 137kts
28-Jul-20 21:30 34.643160 -118.521043 94 8538ft 137kts
28-Jul-20 21:31 34.642727 -118.472655 84 8100ft 152kts
28-Jul-20 21:32 34.649551 -118.421136 83 7402ft 155kts
28-Jul-20 21:33 34.649597 -118.370255 106 6693ft 141kts
28-Jul-20 21:34 34.640338 -118.325665 108 5987ft 134kts
28-Jul-20 21:35 34.630855 -118.281696 108 5284ft 135kts
28-Jul-20 21:36 34.629124 -118.235693 91 4583ft 137kts
28-Jul-20 21:37 34.626654 -118.192639 91 4000ft 102kts
28-Jul-20 21:38 34.628506 -118.157638 89 3383ft 99kts
28-Jul-20 21:39 34.629973 -118.128183 85 2894ft 84kts
28-Jul-20 21:40 34.631100 -118.104204 85 2526ft 39kts
28-Jul-20 21:41 34.631451 -118.098364 66 2517ft 11kts
28-Jul-20 21:42 34.633073 -118.098021 358 2513ft 8kts
28-Jul-20 21:43 34.634974 -118.097992 356 2513ft 10kts
28-Jul-20 21:44 34.635827 -118.097751 89 2511ft 0kts
28-Jul-20 21:45 34.635827 -118.097751 89 2511ft 0kts
28-Jul-20 21:46 34.635827 -118.097751 89 2511ft 0kts
28-Jul-20 21:47 34.635827 -118.097751 89 2511ft 0kts
28-Jul-20 21:48 34.635827 -118.097751 89 2511ft 0kts
28-Jul-20 21:49 34.635827 -118.097751 89 2511ft 0kts
28-Jul-20 21:50 34.635827 -118.097751 89 2511ft 0kts
28-Jul-20 21:51 34.635827 -118.097751 89 2511ft 0kts
28-Jul-20 21:52 34.635827 -118.097751 89 2511ft 0kts
28-Jul-20 21:53 34.635827 -118.097751 89 2511ft 0kts
28-Jul-20 21:54 34.900724 -120.451569 228 264ft 0kts

Navigation Log

Ident Type
Flight plan parsing failed, navigation log unavailable